createdAt,value
2022-08-18T00:01:51.143Z,16.75
2022-08-18T00:04:35.118Z,17.05
2022-08-18T00:07:03.577Z,16.98
2022-08-18T00:09:32.681Z,17.38
2022-08-18T00:12:02.015Z,17.95
2022-08-18T00:14:29.148Z,18.50
2022-08-18T00:16:56.489Z,18.73
2022-08-18T00:19:46.593Z,17.80
2022-08-18T00:22:15.302Z,18.23
2022-08-18T00:24:48.393Z,18.33
2022-08-18T00:27:23.969Z,18.10
2022-08-18T00:29:56.882Z,18.33
2022-08-18T00:32:27.365Z,18.70
2022-08-18T00:34:54.943Z,18.95
2022-08-18T00:37:23.539Z,17.88
2022-08-18T00:39:52.764Z,18.40
2022-08-18T00:42:28.840Z,18.05
2022-08-18T00:44:59.988Z,18.20
2022-08-18T00:47:41.385Z,17.45
2022-08-18T00:50:15.508Z,18.10
2022-08-18T00:52:51.196Z,17.25
2022-08-18T00:57:48.935Z,17.63
2022-08-18T01:00:16.331Z,17.17
2022-08-18T01:02:48.026Z,18.40
2022-08-18T01:05:34.145Z,18.67
2022-08-18T01:08:01.985Z,18.42
2022-08-18T01:10:29.156Z,18.73
2022-08-18T01:12:59.027Z,18.27
2022-08-18T01:15:30.144Z,18.42
2022-08-18T01:18:23.644Z,18.50
2022-08-18T01:21:43.761Z,18.92
2022-08-18T01:24:13.151Z,18.00
2022-08-18T01:26:50.597Z,18.65
2022-08-18T01:29:19.990Z,17.88
2022-08-18T01:31:56.934Z,18.42
2022-08-18T01:34:28.589Z,18.08
2022-08-18T01:36:56.652Z,16.98
2022-08-18T01:41:27.816Z,16.52
2022-08-18T01:42:13.394Z,16.67
2022-08-18T01:44:41.961Z,17.42
2022-08-18T01:47:11.684Z,18.15
2022-08-18T01:49:42.081Z,16.75
2022-08-18T01:52:11.060Z,17.02
2022-08-18T01:54:38.287Z,18.15
2022-08-18T01:57:05.793Z,18.45
2022-08-18T01:59:35.469Z,18.42
2022-08-18T02:02:02.620Z,18.50
2022-08-18T02:04:36.769Z,16.48
2022-08-18T02:07:14.933Z,17.13
2022-08-18T02:09:43.761Z,17.58
2022-08-18T02:12:14.593Z,17.40
2022-08-18T02:14:42.029Z,16.80
2022-08-18T02:17:11.182Z,16.60
2022-08-18T02:19:42.047Z,17.20
2022-08-18T02:22:10.639Z,17.50
2022-08-18T02:24:38.288Z,15.75
2022-08-18T02:27:06.133Z,16.23
2022-08-18T02:29:33.581Z,16.25
2022-08-18T02:32:00.709Z,16.20
2022-08-18T02:34:27.804Z,17.27
2022-08-18T02:36:54.960Z,15.70
2022-08-18T02:39:22.101Z,16.20
2022-08-18T02:41:49.250Z,16.83
2022-08-18T02:44:16.209Z,16.48
2022-08-18T02:46:43.650Z,16.10
2022-08-18T02:49:16.739Z,16.45
2022-08-18T02:51:46.139Z,17.15
2022-08-18T02:54:13.086Z,16.95
2022-08-18T02:56:42.389Z,16.15
2022-08-18T02:59:20.089Z,16.92
2022-08-18T03:01:51.482Z,16.63
2022-08-18T03:04:29.697Z,16.33
2022-08-18T03:07:00.442Z,16.50
2022-08-18T03:09:29.499Z,16.90
2022-08-18T03:11:56.460Z,15.85
2022-08-18T03:14:23.415Z,15.70
2022-08-18T03:16:53.521Z,15.27
2022-08-18T03:19:26.220Z,15.38
2022-08-18T03:21:57.238Z,15.73
2022-08-18T03:24:26.151Z,14.25
2022-08-18T03:26:55.906Z,15.57
2022-08-18T03:29:25.507Z,14.18
2022-08-18T03:31:54.868Z,14.57
2022-08-18T03:34:21.867Z,14.07
2022-08-18T03:36:50.461Z,15.25
2022-08-18T03:39:19.050Z,14.48
2022-08-18T03:42:00.147Z,14.82
2022-08-18T03:44:30.971Z,14.10
2022-08-18T03:46:59.002Z,13.82
2022-08-18T03:49:27.149Z,13.82
2022-08-18T03:51:54.651Z,14.45
2022-08-18T03:54:22.251Z,14.95
2022-08-18T03:56:49.961Z,15.18
2022-08-18T03:59:23.574Z,14.70
2022-08-18T04:01:52.601Z,14.80
2022-08-18T04:04:23.381Z,14.70
2022-08-18T04:06:55.650Z,14.98
2022-08-18T04:09:27.994Z,15.18
2022-08-18T04:11:56.389Z,13.07
2022-08-18T04:14:25.865Z,13.65
2022-08-18T04:16:53.068Z,13.73
2022-08-18T04:19:23.068Z,13.80
2022-08-18T04:21:55.385Z,12.93
2022-08-18T04:24:22.513Z,12.93
2022-08-18T04:26:50.304Z,13.38
2022-08-18T04:29:21.126Z,12.60
2022-08-18T04:31:48.847Z,12.57
2022-08-18T04:34:21.421Z,12.57
2022-08-18T04:36:50.603Z,12.38
2022-08-18T04:39:17.956Z,13.23
2022-08-18T04:41:45.053Z,12.43
2022-08-18T04:44:17.682Z,11.05
2022-08-18T04:46:48.228Z,11.55
2022-08-18T04:49:17.604Z,11.60
2022-08-18T04:52:22.632Z,12.23
2022-08-18T04:54:55.629Z,11.27
2022-08-18T04:57:23.212Z,12.00
2022-08-18T04:59:52.511Z,11.35
2022-08-18T05:02:20.795Z,12.13
2022-08-18T05:04:48.179Z,11.38
2022-08-18T05:07:19.047Z,12.82
2022-08-18T05:09:47.251Z,11.75
2022-08-18T05:12:15.934Z,11.63
2022-08-18T05:14:44.760Z,11.93
2022-08-18T05:17:13.903Z,11.23
2022-08-18T05:19:44.101Z,11.50
2022-08-18T05:22:14.005Z,11.07
2022-08-18T05:24:41.539Z,10.95
2022-08-18T05:29:41.557Z,11.27
2022-08-18T05:32:40.965Z,10.27
2022-08-18T05:35:24.145Z,9.93
2022-08-18T05:37:57.275Z,10.35
2022-08-18T05:40:25.161Z,10.10
2022-08-18T05:42:52.464Z,9.70
2022-08-18T05:45:20.819Z,10.10
2022-08-18T05:47:47.967Z,9.15
2022-08-18T05:50:19.956Z,10.15
2022-08-18T05:53:09.286Z,10.57
2022-08-18T05:56:12.495Z,9.30
2022-08-18T05:58:47.102Z,10.27
2022-08-18T06:01:30.314Z,9.85
2022-08-18T06:04:01.319Z,9.20
2022-08-18T06:06:31.200Z,9.20
2022-08-18T06:09:37.153Z,9.30
2022-08-18T06:12:28.047Z,9.80
2022-08-18T06:15:07.413Z,8.20
2022-08-18T06:18:05.828Z,8.57
2022-08-18T06:20:59.803Z,8.60
2022-08-18T06:23:41.396Z,8.25
2022-08-18T06:26:52.990Z,8.77
2022-08-18T06:29:26.890Z,8.23
2022-08-18T06:32:19.997Z,8.32
2022-08-18T06:34:54.617Z,8.00
2022-08-18T06:37:33.468Z,8.18
2022-08-18T06:40:00.763Z,8.13
2022-08-18T06:42:31.329Z,7.78
2022-08-18T06:45:01.229Z,7.57
2022-08-18T06:47:46.126Z,7.32
2022-08-18T06:50:43.555Z,8.15
2022-08-18T06:53:27.620Z,6.88
2022-08-18T06:55:55.606Z,7.68
2022-08-18T06:58:31.374Z,7.65
2022-08-18T07:01:05.508Z,7.85
2022-08-18T07:03:35.625Z,7.22
2022-08-18T07:06:23.598Z,6.60
2022-08-18T07:09:04.646Z,6.82
2022-08-18T07:11:33.481Z,6.60
2022-08-18T07:14:21.747Z,6.60
2022-08-18T07:16:58.965Z,6.35
2022-08-18T07:19:29.881Z,6.70
2022-08-18T07:22:39.662Z,6.75
2022-08-18T07:25:14.206Z,6.38
2022-08-18T07:27:45.716Z,6.30
2022-08-18T07:30:21.186Z,6.35
2022-08-18T07:33:16.550Z,6.57
2022-08-18T07:35:50.800Z,5.82
2022-08-18T07:38:42.003Z,6.35
2022-08-18T07:41:20.838Z,5.40
2022-08-18T07:43:51.915Z,5.97
2022-08-18T07:46:44.962Z,4.95
2022-08-18T07:49:22.216Z,5.30
2022-08-18T07:52:14.606Z,6.15
2022-08-18T07:55:26.614Z,5.60
2022-08-18T07:58:02.382Z,5.75
2022-08-18T08:00:59.566Z,5.22
2022-08-18T08:03:48.175Z,5.30
2022-08-18T08:06:21.072Z,5.25
2022-08-18T08:09:29.993Z,5.07
2022-08-18T08:12:02.403Z,5.82
2022-08-18T08:14:43.116Z,4.35
2022-08-18T08:17:34.630Z,4.90
2022-08-18T08:20:20.164Z,4.55
2022-08-18T08:25:47.805Z,5.00
2022-08-18T08:28:33.562Z,4.82
2022-08-18T08:31:33.358Z,4.68
2022-08-18T08:34:13.214Z,6.65
2022-08-18T08:39:28.975Z,10.38
2022-08-18T08:42:31.596Z,13.02
2022-08-18T08:45:01.069Z,12.75
2022-08-18T08:48:08.902Z,12.57
2022-08-18T08:51:21.037Z,13.10
2022-08-18T08:53:59.171Z,11.63
2022-08-18T08:56:31.043Z,12.48
2022-08-18T08:59:03.485Z,11.25
2022-08-18T09:02:32.315Z,14.32
2022-08-18T09:05:13.828Z,12.30
2022-08-18T09:08:00.885Z,13.75
2022-08-18T09:10:52.954Z,14.65
2022-08-18T09:13:41.876Z,13.93
2022-08-18T09:16:37.768Z,12.88
2022-08-18T09:19:32.348Z,15.00
2022-08-18T09:22:36.389Z,16.15
2022-08-18T09:25:29.277Z,13.82
2022-08-18T09:28:12.365Z,13.48
2022-08-18T09:30:42.511Z,15.75
2022-08-18T09:33:34.019Z,15.73
2022-08-18T09:36:20.604Z,16.02
2022-08-18T09:39:18.569Z,16.83
2022-08-18T09:41:57.285Z,17.17
2022-08-18T09:44:49.192Z,14.88
2022-08-18T09:47:23.835Z,14.88
2022-08-18T09:49:56.260Z,13.93
2022-08-18T09:52:24.332Z,15.30
2022-08-18T09:55:06.725Z,16.10
2022-08-18T09:57:42.029Z,14.70
2022-08-18T10:00:14.279Z,15.05
2022-08-18T10:02:45.674Z,13.55
2022-08-18T10:05:15.760Z,12.15
2022-08-18T10:07:48.999Z,15.63
2022-08-18T10:11:00.855Z,14.40
2022-08-18T10:13:25.495Z,13.07
2022-08-18T10:16:11.081Z,14.20
2022-08-18T10:18:58.858Z,12.70
2022-08-18T10:21:31.603Z,13.73
2022-08-18T10:24:32.159Z,13.35
2022-08-18T10:26:57.103Z,12.80
2022-08-18T10:29:30.011Z,11.63
2022-08-18T10:31:57.684Z,12.65
2022-08-18T10:34:52.015Z,12.40
2022-08-18T10:37:30.020Z,11.73
2022-08-18T10:40:01.723Z,10.75
2022-08-18T10:42:33.791Z,10.80
2022-08-18T10:45:31.618Z,10.70
2022-08-18T10:48:02.885Z,10.55
2022-08-18T10:50:35.431Z,10.75
2022-08-18T10:53:40.720Z,10.90
2022-08-18T10:59:47.743Z,9.88
2022-08-18T11:03:02.633Z,9.40
2022-08-18T11:05:43.099Z,8.77
2022-08-18T11:08:16.103Z,9.40
2022-08-18T11:11:33.053Z,8.45
2022-08-18T11:13:51.188Z,10.07
2022-08-18T11:16:33.027Z,9.02
2022-08-18T11:19:11.113Z,9.32
2022-08-18T11:21:42.445Z,9.88
2022-08-18T11:24:21.638Z,8.90
2022-08-18T11:26:56.813Z,9.30
2022-08-18T11:29:37.302Z,9.23
2022-08-18T11:32:04.885Z,9.63
2022-08-18T11:34:39.254Z,10.27
2022-08-18T11:37:53.476Z,10.07
2022-08-18T11:41:08.869Z,9.18
2022-08-18T11:43:24.020Z,8.93
2022-08-18T11:46:14.285Z,8.93
2022-08-18T11:48:50.861Z,11.15
2022-08-18T11:51:25.592Z,9.55
2022-08-18T11:53:59.398Z,8.95
2022-08-18T11:56:34.478Z,9.88
2022-08-18T11:59:52.581Z,10.15
2022-08-18T12:02:20.862Z,9.82
2022-08-18T12:05:08.590Z,9.57
2022-08-18T12:10:29.865Z,8.63
2022-08-18T12:13:01.145Z,8.82
2022-08-18T12:15:45.296Z,8.95
2022-08-18T12:18:26.626Z,8.40
2022-08-18T12:20:58.556Z,8.25
2022-08-18T12:23:26.542Z,8.20
2022-08-18T12:25:53.811Z,8.48
2022-08-18T12:28:22.305Z,8.77
2022-08-18T12:36:25.296Z,7.78
2022-08-18T12:38:56.779Z,6.90
2022-08-18T12:41:25.303Z,7.40
2022-08-18T12:43:58.391Z,7.28
2022-08-18T12:46:27.357Z,7.30
2022-08-18T12:48:54.500Z,7.32
2022-08-18T12:51:24.866Z,7.30
2022-08-18T12:53:59.941Z,7.13
2022-08-18T12:56:30.934Z,7.88
2022-08-18T12:59:03.961Z,7.88
2022-08-18T13:01:36.126Z,7.82
2022-08-18T13:04:11.511Z,7.40
2022-08-18T13:06:58.745Z,6.60
2022-08-18T13:09:35.183Z,6.97
2022-08-18T13:12:17.643Z,6.97
2022-08-18T13:14:46.002Z,7.07
2022-08-18T13:17:29.476Z,6.78
2022-08-18T13:20:19.421Z,6.95
2022-08-18T13:22:48.320Z,7.72
2022-08-18T13:25:28.809Z,7.00
2022-08-18T13:28:02.030Z,7.15
2022-08-18T13:30:32.091Z,7.63
2022-08-18T13:33:34.116Z,7.38
2022-08-18T13:35:54.422Z,8.27
2022-08-18T13:38:26.107Z,7.60
2022-08-18T13:40:57.790Z,7.82
2022-08-18T13:43:32.163Z,7.97
2022-08-18T13:46:00.033Z,8.32
2022-08-18T13:48:29.909Z,7.88
2022-08-18T13:51:00.913Z,7.30
2022-08-18T13:53:31.658Z,7.07
2022-08-18T13:55:59.574Z,8.35
2022-08-18T13:58:29.907Z,7.47
2022-08-18T14:01:39.505Z,6.90
2022-08-18T14:03:52.186Z,7.43
2022-08-18T14:06:22.902Z,7.00
2022-08-18T14:08:51.982Z,7.03
2022-08-18T14:11:20.586Z,8.05
2022-08-18T14:13:47.463Z,7.93
2022-08-18T14:16:16.203Z,9.00
2022-08-18T14:19:09.954Z,8.13
2022-08-18T14:22:01.186Z,9.15
2022-08-18T14:24:49.099Z,9.55
2022-08-18T14:27:29.010Z,9.40
2022-08-18T14:30:09.158Z,9.10
2022-08-18T14:32:48.857Z,8.48
2022-08-18T14:35:33.478Z,9.05
2022-08-18T14:38:02.674Z,9.23
2022-08-18T14:40:31.364Z,8.85
2022-08-18T14:42:58.976Z,8.90
2022-08-18T14:45:31.168Z,9.43
2022-08-18T14:48:07.565Z,9.00
2022-08-18T14:50:55.608Z,9.27
2022-08-18T14:53:25.933Z,9.10
2022-08-18T14:55:54.812Z,9.45
2022-08-18T14:58:29.114Z,9.75
2022-08-18T15:00:58.708Z,9.60
2022-08-18T15:03:31.152Z,8.88
2022-08-18T15:06:00.583Z,8.35
2022-08-18T15:08:28.059Z,8.15
2022-08-18T15:10:56.398Z,8.30
2022-08-18T15:13:26.565Z,8.40
2022-08-18T15:15:55.908Z,8.55
2022-08-18T15:18:31.300Z,8.27
2022-08-18T15:21:19.398Z,8.80
2022-08-18T15:24:20.720Z,9.38
2022-08-18T15:26:51.594Z,9.80
2022-08-18T15:29:22.593Z,9.70
2022-08-18T15:31:57.861Z,9.27
2022-08-18T15:34:28.170Z,10.25
2022-08-18T15:36:57.128Z,10.90
2022-08-18T15:39:34.684Z,10.43
2022-08-18T15:42:09.593Z,10.27
2022-08-18T15:47:05.966Z,11.23
2022-08-18T15:49:36.404Z,11.02
2022-08-18T15:52:03.720Z,10.95
2022-08-18T15:54:30.910Z,10.65
2022-08-18T15:56:58.836Z,12.18
2022-08-18T15:59:34.164Z,11.43
2022-08-18T16:02:11.483Z,11.73
2022-08-18T16:04:41.387Z,11.88
2022-08-18T16:07:11.910Z,11.00
2022-08-18T16:09:39.026Z,11.27
2022-08-18T16:12:28.422Z,11.52
2022-08-18T16:14:55.463Z,11.25
2022-08-18T16:17:29.878Z,11.73
2022-08-18T16:19:59.781Z,11.63
2022-08-18T16:22:27.447Z,11.38
2022-08-18T16:24:54.952Z,10.98
2022-08-18T16:27:22.193Z,11.75
2022-08-18T16:29:49.339Z,11.13
2022-08-18T16:32:16.755Z,11.05
2022-08-18T16:34:43.760Z,11.50
2022-08-18T16:37:11.238Z,11.32
2022-08-18T16:39:38.496Z,11.75
2022-08-18T16:42:06.880Z,11.52
2022-08-18T16:44:33.868Z,9.93
2022-08-18T16:47:03.455Z,10.05
2022-08-18T16:49:32.104Z,11.40
2022-08-18T16:52:02.764Z,10.93
2022-08-18T16:54:30.284Z,10.73
2022-08-18T16:56:57.267Z,11.60
2022-08-18T16:59:44.086Z,10.52
2022-08-18T17:02:32.684Z,12.95
2022-08-18T17:05:02.623Z,11.65
2022-08-18T17:07:31.246Z,10.98
2022-08-18T17:09:58.537Z,10.90
2022-08-18T17:12:26.727Z,10.57
2022-08-18T17:14:54.646Z,10.02
2022-08-18T17:17:22.188Z,9.70
2022-08-18T17:19:50.294Z,9.68
2022-08-18T17:22:17.967Z,9.85
2022-08-18T17:24:49.572Z,9.90
2022-08-18T17:27:26.512Z,9.85
2022-08-18T17:30:19.027Z,9.23
2022-08-18T17:33:01.516Z,9.55
2022-08-18T17:35:39.036Z,9.60
2022-08-18T17:38:13.201Z,9.85
2022-08-18T17:40:46.178Z,10.05
2022-08-18T17:43:17.200Z,11.95
2022-08-18T17:45:49.485Z,11.30
2022-08-18T17:48:54.858Z,11.07
2022-08-18T17:51:43.490Z,11.10
2022-08-18T17:54:23.816Z,10.90
2022-08-18T17:57:01.724Z,11.50
2022-08-18T17:59:52.688Z,10.98
2022-08-18T18:02:31.484Z,10.15
2022-08-18T18:05:06.336Z,10.18
2022-08-18T18:07:38.491Z,11.13
2022-08-18T18:13:33.059Z,10.82
2022-08-18T18:16:24.670Z,10.93
2022-08-18T18:19:03.453Z,10.63
2022-08-18T18:22:00.383Z,12.23
2022-08-18T18:24:28.699Z,11.32
2022-08-18T18:26:56.489Z,11.68
2022-08-18T18:29:37.793Z,11.48
2022-08-18T18:35:23.798Z,11.48
2022-08-18T18:38:04.229Z,10.60
2022-08-18T18:40:36.272Z,10.73
2022-08-18T18:43:29.156Z,11.23
2022-08-18T18:46:26.127Z,10.85
2022-08-18T18:49:14.488Z,11.77
2022-08-18T18:52:09.575Z,11.65
2022-08-18T18:54:40.568Z,12.38
2022-08-18T18:57:34.764Z,11.63
2022-08-18T19:00:28.247Z,12.15
2022-08-18T19:03:03.650Z,12.10
2022-08-18T19:05:49.515Z,11.45
2022-08-18T19:08:29.437Z,13.07
2022-08-18T19:11:10.162Z,15.23
2022-08-18T19:13:46.700Z,13.57
2022-08-18T19:20:00.203Z,15.32
2022-08-18T19:22:43.862Z,13.98
2022-08-18T19:25:20.464Z,17.30
2022-08-18T19:27:50.732Z,15.98
2022-08-18T19:30:20.355Z,15.68
2022-08-18T19:33:00.772Z,16.20
2022-08-18T19:35:40.401Z,16.40
2022-08-18T19:38:34.947Z,17.48
2022-08-18T19:41:30.659Z,15.90
2022-08-18T19:44:35.954Z,16.42
2022-08-18T19:47:05.996Z,16.52
2022-08-18T19:49:41.933Z,16.77
2022-08-18T19:52:48.081Z,16.90
2022-08-18T19:55:21.276Z,16.70
2022-08-18T19:58:01.342Z,16.70
2022-08-18T20:00:50.310Z,16.52
2022-08-18T20:03:52.647Z,17.38
2022-08-18T20:06:50.171Z,15.52
2022-08-18T20:09:17.029Z,14.55
2022-08-18T20:11:46.843Z,15.18
2022-08-18T20:14:18.978Z,15.30
2022-08-18T20:17:20.515Z,15.27
2022-08-18T20:19:59.804Z,15.63
2022-08-18T20:22:31.923Z,16.38
2022-08-18T20:25:06.768Z,16.55
2022-08-18T20:27:38.184Z,16.50
2022-08-18T20:30:20.143Z,17.23
2022-08-18T20:33:15.043Z,17.08
2022-08-18T20:36:37.384Z,15.55
2022-08-18T20:39:36.489Z,15.88
2022-08-18T20:42:06.197Z,14.65
2022-08-18T20:44:42.932Z,14.93
2022-08-18T20:47:36.432Z,14.00
2022-08-18T20:50:39.994Z,14.40
2022-08-18T20:53:26.067Z,14.07
2022-08-18T20:56:31.689Z,15.15
2022-08-18T20:59:20.927Z,14.80
2022-08-18T21:08:55.782Z,14.73
2022-08-18T21:11:30.860Z,15.65
2022-08-18T21:14:03.798Z,16.17
2022-08-18T21:16:38.715Z,14.75
2022-08-18T21:19:06.332Z,15.30
2022-08-18T21:21:38.428Z,15.02
2022-08-18T21:24:07.834Z,15.32
2022-08-18T21:26:35.070Z,14.73
2022-08-18T21:29:09.289Z,14.98
2022-08-18T21:31:43.819Z,14.48
2022-08-18T21:34:29.199Z,15.13
2022-08-18T21:36:58.324Z,13.73
2022-08-18T21:39:25.907Z,14.52
2022-08-18T21:41:55.749Z,14.00
2022-08-18T21:44:29.051Z,14.50
2022-08-18T21:47:26.015Z,12.20
2022-08-18T21:50:14.872Z,13.05
2022-08-18T21:53:00.637Z,13.02
2022-08-18T21:58:02.882Z,12.63
2022-08-18T22:00:34.424Z,11.38
2022-08-18T22:03:16.394Z,11.95
2022-08-18T22:05:59.168Z,11.25
2022-08-18T22:08:49.754Z,10.27
2022-08-18T22:12:00.451Z,11.23
2022-08-18T22:14:54.573Z,11.30
2022-08-18T22:17:31.413Z,11.05
2022-08-18T22:20:35.570Z,10.13
2022-08-18T22:23:26.713Z,9.88
2022-08-18T22:26:17.695Z,9.93
2022-08-18T22:29:06.579Z,9.32
2022-08-18T22:31:53.715Z,8.77
2022-08-18T22:34:28.476Z,8.85
2022-08-18T22:37:00.344Z,9.38
2022-08-18T22:39:32.484Z,8.40
2022-08-18T22:42:04.627Z,8.55
2022-08-18T22:44:32.237Z,8.30
2022-08-18T22:47:34.114Z,7.68
2022-08-18T22:59:27.269Z,8.68
2022-08-18T23:29:21.763Z,8.35
2022-08-18T23:31:50.063Z,8.18
